sensor_id;sensor_type;location;lat;lon;timestamp;temperature;humidity
10468;DHT22;5281;48.878;9.394;2024-02-28T00:00:15;10.20;99.90
10468;DHT22;5281;48.878;9.394;2024-02-28T00:02:41;10.10;99.90
10468;DHT22;5281;48.878;9.394;2024-02-28T00:05:08;10.10;99.90
10468;DHT22;5281;48.878;9.394;2024-02-28T00:07:35;10.20;99.90
10468;DHT22;5281;48.878;9.394;2024-02-28T00:10:03;10.20;99.90
10468;DHT22;5281;48.878;9.394;2024-02-28T00:12:30;10.30;99.90
10468;DHT22;5281;48.878;9.394;2024-02-28T00:14:57;10.20;99.90
10468;DHT22;5281;48.878;9.394;2024-02-28T00:17:25;10.20;99.90
10468;DHT22;5281;48.878;9.394;2024-02-28T00:19:52;10.20;99.90
10468;DHT22;5281;48.878;9.394;2024-02-28T00:22:19;10.20;99.90
10468;DHT22;5281;48.878;9.394;2024-02-28T00:24:45;10.00;99.90
10468;DHT22;5281;48.878;9.394;2024-02-28T00:27:12;9.90;99.90
10468;DHT22;5281;48.878;9.394;2024-02-28T00:29:39;9.80;99.90
10468;DHT22;5281;48.878;9.394;2024-02-28T00:32:06;9.80;99.90
10468;DHT22;5281;48.878;9.394;2024-02-28T00:34:34;9.90;99.90
10468;DHT22;5281;48.878;9.394;2024-02-28T00:37:01;9.90;99.90
10468;DHT22;5281;48.878;9.394;2024-02-28T00:39:27;9.90;99.90
10468;DHT22;5281;48.878;9.394;2024-02-28T00:41:54;10.10;99.90
10468;DHT22;5281;48.878;9.394;2024-02-28T00:44:20;10.10;99.90
10468;DHT22;5281;48.878;9.394;2024-02-28T00:46:47;10.10;99.90
10468;DHT22;5281;48.878;9.394;2024-02-28T00:49:14;10.00;99.90
10468;DHT22;5281;48.878;9.394;2024-02-28T00:51:42;10.00;99.90
10468;DHT22;5281;48.878;9.394;2024-02-28T00:54:08;10.10;99.90
10468;DHT22;5281;48.878;9.394;2024-02-28T00:56:35;10.10;99.90
10468;DHT22;5281;48.878;9.394;2024-02-28T00:59:02;10.20;99.90
10468;DHT22;5281;48.878;9.394;2024-02-28T01:01:29;10.20;99.90
10468;DHT22;5281;48.878;9.394;2024-02-28T01:03:55;10.20;99.90
10468;DHT22;5281;48.878;9.394;2024-02-28T01:06:22;10.10;99.90
10468;DHT22;5281;48.878;9.394;2024-02-28T01:08:50;10.10;99.90
10468;DHT22;5281;48.878;9.394;2024-02-28T01:11:17;10.00;99.90
10468;DHT22;5281;48.878;9.394;2024-02-28T01:13:43;10.00;99.90
10468;DHT22;5281;48.878;9.394;2024-02-28T01:16:10;10.00;99.90
10468;DHT22;5281;48.878;9.394;2024-02-28T01:18:37;10.00;99.90
10468;DHT22;5281;48.878;9.394;2024-02-28T01:21:03;9.80;99.90
10468;DHT22;5281;48.878;9.394;2024-02-28T01:23:30;9.80;99.90
10468;DHT22;5281;48.878;9.394;2024-02-28T01:25:58;9.60;99.90
10468;DHT22;5281;48.878;9.394;2024-02-28T01:28:28;9.60;99.90
10468;DHT22;5281;48.878;9.394;2024-02-28T01:30:55;9.50;99.90
10468;DHT22;5281;48.878;9.394;2024-02-28T01:33:21;9.40;99.90
10468;DHT22;5281;48.878;9.394;2024-02-28T01:35:48;9.40;99.90
10468;DHT22;5281;48.878;9.394;2024-02-28T01:38:15;9.40;99.90
10468;DHT22;5281;48.878;9.394;2024-02-28T01:40:44;9.40;99.90
10468;DHT22;5281;48.878;9.394;2024-02-28T01:43:13;9.40;99.90
10468;DHT22;5281;48.878;9.394;2024-02-28T01:45:39;9.30;99.90
10468;DHT22;5281;48.878;9.394;2024-02-28T01:48:07;9.30;99.90
10468;DHT22;5281;48.878;9.394;2024-02-28T01:50:35;9.20;99.90
10468;DHT22;5281;48.878;9.394;2024-02-28T01:53:03;9.20;99.90
10468;DHT22;5281;48.878;9.394;2024-02-28T01:55:30;9.20;99.90
10468;DHT22;5281;48.878;9.394;2024-02-28T01:57:57;9.10;99.90
10468;DHT22;5281;48.878;9.394;2024-02-28T02:00:27;9.20;99.90
10468;DHT22;5281;48.878;9.394;2024-02-28T02:02:54;9.20;99.90
10468;DHT22;5281;48.878;9.394;2024-02-28T02:05:21;9.20;99.90
10468;DHT22;5281;48.878;9.394;2024-02-28T02:07:48;9.20;99.90
10468;DHT22;5281;48.878;9.394;2024-02-28T02:10:15;9.10;99.90
10468;DHT22;5281;48.878;9.394;2024-02-28T02:12:42;9.10;99.90
10468;DHT22;5281;48.878;9.394;2024-02-28T02:15:08;9.10;99.90
10468;DHT22;5281;48.878;9.394;2024-02-28T02:17:37;9.20;99.90
10468;DHT22;5281;48.878;9.394;2024-02-28T02:20:04;9.20;99.90
10468;DHT22;5281;48.878;9.394;2024-02-28T02:22:34;9.20;99.90
10468;DHT22;5281;48.878;9.394;2024-02-28T02:25:03;9.20;99.90
10468;DHT22;5281;48.878;9.394;2024-02-28T02:27:29;9.10;99.90
10468;DHT22;5281;48.878;9.394;2024-02-28T02:29:56;9.10;99.90
10468;DHT22;5281;48.878;9.394;2024-02-28T02:32:23;9.30;99.90
10468;DHT22;5281;48.878;9.394;2024-02-28T02:34:49;9.30;99.90
10468;DHT22;5281;48.878;9.394;2024-02-28T02:37:16;9.20;99.90
10468;DHT22;5281;48.878;9.394;2024-02-28T02:39:44;9.20;99.90
10468;DHT22;5281;48.878;9.394;2024-02-28T02:42:11;9.30;99.90
10468;DHT22;5281;48.878;9.394;2024-02-28T02:44:40;9.30;99.90
10468;DHT22;5281;48.878;9.394;2024-02-28T02:47:07;9.30;99.90
10468;DHT22;5281;48.878;9.394;2024-02-28T02:49:33;9.50;99.90
10468;DHT22;5281;48.878;9.394;2024-02-28T02:52:00;9.50;99.90
10468;DHT22;5281;48.878;9.394;2024-02-28T02:54:26;9.60;99.90
10468;DHT22;5281;48.878;9.394;2024-02-28T02:56:54;9.60;99.90
10468;DHT22;5281;48.878;9.394;2024-02-28T02:59:21;9.70;99.90
10468;DHT22;5281;48.878;9.394;2024-02-28T03:01:49;9.70;99.90
10468;DHT22;5281;48.878;9.394;2024-02-28T03:04:16;9.50;99.90
10468;DHT22;5281;48.878;9.394;2024-02-28T03:06:42;9.40;99.90
10468;DHT22;5281;48.878;9.394;2024-02-28T03:09:09;9.30;99.90
10468;DHT22;5281;48.878;9.394;2024-02-28T03:11:35;9.20;99.90
10468;DHT22;5281;48.878;9.394;2024-02-28T03:14:03;9.20;99.90
10468;DHT22;5281;48.878;9.394;2024-02-28T03:16:30;9.20;99.90
10468;DHT22;5281;48.878;9.394;2024-02-28T03:18:57;9.20;99.90
10468;DHT22;5281;48.878;9.394;2024-02-28T03:21:23;9.20;99.90
10468;DHT22;5281;48.878;9.394;2024-02-28T03:23:49;9.20;99.90
10468;DHT22;5281;48.878;9.394;2024-02-28T03:26:16;9.20;99.90
10468;DHT22;5281;48.878;9.394;2024-02-28T03:28:42;9.30;99.90
10468;DHT22;5281;48.878;9.394;2024-02-28T03:31:10;9.40;99.90
10468;DHT22;5281;48.878;9.394;2024-02-28T03:33:37;9.50;99.90
10468;DHT22;5281;48.878;9.394;2024-02-28T03:36:04;9.50;99.90
10468;DHT22;5281;48.878;9.394;2024-02-28T03:38:31;9.60;99.90
10468;DHT22;5281;48.878;9.394;2024-02-28T03:40:57;9.70;99.90
10468;DHT22;5281;48.878;9.394;2024-02-28T03:43:24;9.70;99.90
10468;DHT22;5281;48.878;9.394;2024-02-28T03:45:51;9.70;99.90
10468;DHT22;5281;48.878;9.394;2024-02-28T03:48:19;9.70;99.90
10468;DHT22;5281;48.878;9.394;2024-02-28T03:50:45;9.70;99.90
10468;DHT22;5281;48.878;9.394;2024-02-28T03:53:12;9.60;99.90
10468;DHT22;5281;48.878;9.394;2024-02-28T03:55:39;9.60;99.90
10468;DHT22;5281;48.878;9.394;2024-02-28T03:58:06;9.70;99.90
10468;DHT22;5281;48.878;9.394;2024-02-28T04:00:34;9.60;99.90
10468;DHT22;5281;48.878;9.394;2024-02-28T04:03:00;9.70;99.90
10468;DHT22;5281;48.878;9.394;2024-02-28T04:05:29;9.70;99.90
10468;DHT22;5281;48.878;9.394;2024-02-28T04:07:56;9.80;99.90
10468;DHT22;5281;48.878;9.394;2024-02-28T04:10:22;9.80;99.90
10468;DHT22;5281;48.878;9.394;2024-02-28T04:12:49;9.80;99.90
10468;DHT22;5281;48.878;9.394;2024-02-28T04:15:16;9.80;99.90
10468;DHT22;5281;48.878;9.394;2024-02-28T04:17:43;9.80;99.90
10468;DHT22;5281;48.878;9.394;2024-02-28T04:20:10;9.80;99.90
10468;DHT22;5281;48.878;9.394;2024-02-28T04:22:38;9.80;99.90
10468;DHT22;5281;48.878;9.394;2024-02-28T04:25:06;9.80;99.90
10468;DHT22;5281;48.878;9.394;2024-02-28T04:27:33;9.70;99.90
10468;DHT22;5281;48.878;9.394;2024-02-28T04:30:00;9.60;99.90
10468;DHT22;5281;48.878;9.394;2024-02-28T04:32:26;9.60;99.90
10468;DHT22;5281;48.878;9.394;2024-02-28T04:34:53;9.50;99.90
10468;DHT22;5281;48.878;9.394;2024-02-28T04:37:20;9.50;99.90
10468;DHT22;5281;48.878;9.394;2024-02-28T04:39:48;9.50;99.90
10468;DHT22;5281;48.878;9.394;2024-02-28T04:42:15;9.40;99.90
10468;DHT22;5281;48.878;9.394;2024-02-28T04:44:42;9.40;99.90
10468;DHT22;5281;48.878;9.394;2024-02-28T04:47:09;9.20;99.90
10468;DHT22;5281;48.878;9.394;2024-02-28T04:49:36;9.10;99.90
10468;DHT22;5281;48.878;9.394;2024-02-28T04:52:04;9.10;99.90
10468;DHT22;5281;48.878;9.394;2024-02-28T04:54:30;9.00;99.90
10468;DHT22;5281;48.878;9.394;2024-02-28T04:56:58;8.90;99.90
10468;DHT22;5281;48.878;9.394;2024-02-28T04:59:25;8.90;99.90
10468;DHT22;5281;48.878;9.394;2024-02-28T05:01:52;8.90;99.90
10468;DHT22;5281;48.878;9.394;2024-02-28T05:04:19;8.90;99.90
10468;DHT22;5281;48.878;9.394;2024-02-28T05:06:46;8.80;99.90
10468;DHT22;5281;48.878;9.394;2024-02-28T05:09:13;8.90;99.90
10468;DHT22;5281;48.878;9.394;2024-02-28T05:11:39;8.90;99.90
10468;DHT22;5281;48.878;9.394;2024-02-28T05:14:09;8.80;99.90
10468;DHT22;5281;48.878;9.394;2024-02-28T05:16:36;8.70;99.90
10468;DHT22;5281;48.878;9.394;2024-02-28T05:19:03;8.60;99.90
10468;DHT22;5281;48.878;9.394;2024-02-28T05:21:30;8.70;99.90
10468;DHT22;5281;48.878;9.394;2024-02-28T05:23:57;8.80;99.90
10468;DHT22;5281;48.878;9.394;2024-02-28T05:26:24;9.00;99.90
10468;DHT22;5281;48.878;9.394;2024-02-28T05:28:50;9.10;99.90
10468;DHT22;5281;48.878;9.394;2024-02-28T05:31:23;9.20;99.90
10468;DHT22;5281;48.878;9.394;2024-02-28T05:33:50;9.20;99.90
10468;DHT22;5281;48.878;9.394;2024-02-28T05:36:17;9.10;99.90
10468;DHT22;5281;48.878;9.394;2024-02-28T05:38:44;8.90;99.90
10468;DHT22;5281;48.878;9.394;2024-02-28T05:41:11;8.80;99.90
10468;DHT22;5281;48.878;9.394;2024-02-28T05:43:38;8.80;99.90
10468;DHT22;5281;48.878;9.394;2024-02-28T05:46:04;9.00;99.90
10468;DHT22;5281;48.878;9.394;2024-02-28T05:48:32;8.90;99.90
10468;DHT22;5281;48.878;9.394;2024-02-28T05:51:00;8.80;99.90
10468;DHT22;5281;48.878;9.394;2024-02-28T05:53:27;8.90;99.90
10468;DHT22;5281;48.878;9.394;2024-02-28T05:55:58;9.10;99.90
10468;DHT22;5281;48.878;9.394;2024-02-28T05:58:24;9.20;99.90
10468;DHT22;5281;48.878;9.394;2024-02-28T06:00:51;9.40;99.90
10468;DHT22;5281;48.878;9.394;2024-02-28T06:03:18;9.50;99.90
10468;DHT22;5281;48.878;9.394;2024-02-28T06:05:46;9.60;99.90
10468;DHT22;5281;48.878;9.394;2024-02-28T06:08:13;9.80;99.90
10468;DHT22;5281;48.878;9.394;2024-02-28T06:10:40;9.80;99.90
10468;DHT22;5281;48.878;9.394;2024-02-28T06:13:07;9.70;99.90
10468;DHT22;5281;48.878;9.394;2024-02-28T06:15:34;9.70;99.90
10468;DHT22;5281;48.878;9.394;2024-02-28T06:18:01;9.80;99.90
10468;DHT22;5281;48.878;9.394;2024-02-28T06:20:27;9.80;99.90
10468;DHT22;5281;48.878;9.394;2024-02-28T06:22:55;9.80;99.90
10468;DHT22;5281;48.878;9.394;2024-02-28T06:25:22;9.80;99.90
10468;DHT22;5281;48.878;9.394;2024-02-28T06:27:50;9.80;99.90
10468;DHT22;5281;48.878;9.394;2024-02-28T06:30:16;9.70;99.90
10468;DHT22;5281;48.878;9.394;2024-02-28T06:32:43;9.50;99.90
10468;DHT22;5281;48.878;9.394;2024-02-28T06:35:10;9.20;99.90
10468;DHT22;5281;48.878;9.394;2024-02-28T06:37:37;9.00;99.90
10468;DHT22;5281;48.878;9.394;2024-02-28T06:40:06;8.90;99.90
10468;DHT22;5281;48.878;9.394;2024-02-28T06:42:34;9.00;99.90
10468;DHT22;5281;48.878;9.394;2024-02-28T06:45:02;8.90;99.90
10468;DHT22;5281;48.878;9.394;2024-02-28T06:47:29;9.00;99.90
10468;DHT22;5281;48.878;9.394;2024-02-28T06:49:58;8.80;99.90
10468;DHT22;5281;48.878;9.394;2024-02-28T06:52:24;8.90;99.90
10468;DHT22;5281;48.878;9.394;2024-02-28T06:54:51;9.00;99.90
10468;DHT22;5281;48.878;9.394;2024-02-28T06:57:19;9.00;99.90
10468;DHT22;5281;48.878;9.394;2024-02-28T06:59:46;9.00;99.90
10468;DHT22;5281;48.878;9.394;2024-02-28T07:02:12;9.00;99.90
10468;DHT22;5281;48.878;9.394;2024-02-28T07:04:39;9.00;99.90
10468;DHT22;5281;48.878;9.394;2024-02-28T07:07:06;9.10;99.90
10468;DHT22;5281;48.878;9.394;2024-02-28T07:09:32;9.20;99.90
10468;DHT22;5281;48.878;9.394;2024-02-28T07:11:58;9.30;99.90
10468;DHT22;5281;48.878;9.394;2024-02-28T07:14:27;9.50;99.90
10468;DHT22;5281;48.878;9.394;2024-02-28T07:16:54;9.50;99.90
10468;DHT22;5281;48.878;9.394;2024-02-28T07:19:21;9.70;99.90
10468;DHT22;5281;48.878;9.394;2024-02-28T07:21:47;9.70;99.90
10468;DHT22;5281;48.878;9.394;2024-02-28T07:24:14;9.80;99.90
10468;DHT22;5281;48.878;9.394;2024-02-28T07:26:41;9.80;99.90
10468;DHT22;5281;48.878;9.394;2024-02-28T07:29:07;9.60;99.90
10468;DHT22;5281;48.878;9.394;2024-02-28T07:31:35;9.50;99.90
10468;DHT22;5281;48.878;9.394;2024-02-28T07:34:02;9.50;99.90
10468;DHT22;5281;48.878;9.394;2024-02-28T07:36:30;9.50;99.90
10468;DHT22;5281;48.878;9.394;2024-02-28T07:38:56;9.60;99.90
10468;DHT22;5281;48.878;9.394;2024-02-28T07:41:23;9.80;99.90
10468;DHT22;5281;48.878;9.394;2024-02-28T07:43:50;9.90;99.90
10468;DHT22;5281;48.878;9.394;2024-02-28T07:46:16;10.00;99.90
10468;DHT22;5281;48.878;9.394;2024-02-28T07:48:44;10.10;99.90
10468;DHT22;5281;48.878;9.394;2024-02-28T07:51:11;10.10;99.90
10468;DHT22;5281;48.878;9.394;2024-02-28T07:53:38;10.30;99.90
10468;DHT22;5281;48.878;9.394;2024-02-28T07:56:05;10.40;99.90
10468;DHT22;5281;48.878;9.394;2024-02-28T07:58:32;10.50;99.90
10468;DHT22;5281;48.878;9.394;2024-02-28T08:00:58;10.50;99.90
10468;DHT22;5281;48.878;9.394;2024-02-28T08:03:25;10.60;99.90
10468;DHT22;5281;48.878;9.394;2024-02-28T08:05:54;10.60;99.90
10468;DHT22;5281;48.878;9.394;2024-02-28T08:08:20;10.60;99.90
10468;DHT22;5281;48.878;9.394;2024-02-28T08:10:47;10.60;99.90
10468;DHT22;5281;48.878;9.394;2024-02-28T08:13:14;10.60;99.90
10468;DHT22;5281;48.878;9.394;2024-02-28T08:15:41;10.60;99.90
10468;DHT22;5281;48.878;9.394;2024-02-28T08:18:07;10.60;99.90
10468;DHT22;5281;48.878;9.394;2024-02-28T08:20:36;10.60;99.90
10468;DHT22;5281;48.878;9.394;2024-02-28T08:23:04;10.60;99.90
10468;DHT22;5281;48.878;9.394;2024-02-28T08:25:31;10.60;99.90
10468;DHT22;5281;48.878;9.394;2024-02-28T08:27:58;10.60;99.90
10468;DHT22;5281;48.878;9.394;2024-02-28T08:30:24;10.60;99.90
10468;DHT22;5281;48.878;9.394;2024-02-28T08:32:51;10.60;99.90
10468;DHT22;5281;48.878;9.394;2024-02-28T08:35:18;10.60;99.90
10468;DHT22;5281;48.878;9.394;2024-02-28T08:37:45;10.60;99.90
10468;DHT22;5281;48.878;9.394;2024-02-28T08:40:13;10.60;99.90
10468;DHT22;5281;48.878;9.394;2024-02-28T08:42:40;10.70;99.90
10468;DHT22;5281;48.878;9.394;2024-02-28T08:45:07;10.40;99.90
10468;DHT22;5281;48.878;9.394;2024-02-28T08:47:34;10.20;99.90
10468;DHT22;5281;48.878;9.394;2024-02-28T08:50:01;9.90;99.90
10468;DHT22;5281;48.878;9.394;2024-02-28T08:52:27;9.70;99.90
10468;DHT22;5281;48.878;9.394;2024-02-28T08:54:54;9.50;99.90
10468;DHT22;5281;48.878;9.394;2024-02-28T08:57:22;9.40;99.90
10468;DHT22;5281;48.878;9.394;2024-02-28T08:59:49;9.40;99.90
10468;DHT22;5281;48.878;9.394;2024-02-28T09:02:16;9.40;99.90
10468;DHT22;5281;48.878;9.394;2024-02-28T09:04:42;9.50;99.90
10468;DHT22;5281;48.878;9.394;2024-02-28T09:07:09;9.80;99.90
10468;DHT22;5281;48.878;9.394;2024-02-28T09:09:41;9.90;99.90
10468;DHT22;5281;48.878;9.394;2024-02-28T09:12:08;10.00;99.90
10468;DHT22;5281;48.878;9.394;2024-02-28T09:14:36;9.90;99.90
10468;DHT22;5281;48.878;9.394;2024-02-28T09:17:04;9.90;99.90
10468;DHT22;5281;48.878;9.394;2024-02-28T09:19:31;9.80;99.90
10468;DHT22;5281;48.878;9.394;2024-02-28T09:21:58;9.80;99.90
10468;DHT22;5281;48.878;9.394;2024-02-28T09:24:25;9.70;99.90
10468;DHT22;5281;48.878;9.394;2024-02-28T09:26:52;9.60;99.90
10468;DHT22;5281;48.878;9.394;2024-02-28T09:29:19;9.70;99.90
10468;DHT22;5281;48.878;9.394;2024-02-28T09:31:47;9.90;99.90
10468;DHT22;5281;48.878;9.394;2024-02-28T09:34:13;10.10;99.90
10468;DHT22;5281;48.878;9.394;2024-02-28T09:36:40;10.20;99.90
10468;DHT22;5281;48.878;9.394;2024-02-28T09:39:07;10.40;99.90
10468;DHT22;5281;48.878;9.394;2024-02-28T09:41:34;10.40;99.90
10468;DHT22;5281;48.878;9.394;2024-02-28T09:44:02;10.40;99.90
10468;DHT22;5281;48.878;9.394;2024-02-28T09:46:29;10.30;99.90
10468;DHT22;5281;48.878;9.394;2024-02-28T09:48:58;10.30;99.90
10468;DHT22;5281;48.878;9.394;2024-02-28T09:51:25;10.30;99.90
10468;DHT22;5281;48.878;9.394;2024-02-28T09:53:53;10.40;99.90
10468;DHT22;5281;48.878;9.394;2024-02-28T09:56:21;10.50;99.90
10468;DHT22;5281;48.878;9.394;2024-02-28T09:58:49;10.50;99.90
10468;DHT22;5281;48.878;9.394;2024-02-28T10:01:16;10.50;99.90
10468;DHT22;5281;48.878;9.394;2024-02-28T10:03:44;10.50;99.90
10468;DHT22;5281;48.878;9.394;2024-02-28T10:06:13;10.50;99.90
10468;DHT22;5281;48.878;9.394;2024-02-28T10:08:41;10.50;99.90
10468;DHT22;5281;48.878;9.394;2024-02-28T10:11:08;10.50;99.90
10468;DHT22;5281;48.878;9.394;2024-02-28T10:13:36;10.40;99.90
10468;DHT22;5281;48.878;9.394;2024-02-28T10:16:06;10.50;99.90
10468;DHT22;5281;48.878;9.394;2024-02-28T10:18:32;10.50;99.90
10468;DHT22;5281;48.878;9.394;2024-02-28T10:20:59;10.60;99.90
10468;DHT22;5281;48.878;9.394;2024-02-28T10:23:27;10.60;99.90
10468;DHT22;5281;48.878;9.394;2024-02-28T10:25:54;10.60;99.90
10468;DHT22;5281;48.878;9.394;2024-02-28T10:28:21;10.70;99.90
10468;DHT22;5281;48.878;9.394;2024-02-28T10:30:48;10.80;99.90
10468;DHT22;5281;48.878;9.394;2024-02-28T10:33:15;10.60;99.90
10468;DHT22;5281;48.878;9.394;2024-02-28T10:35:42;10.70;99.90
10468;DHT22;5281;48.878;9.394;2024-02-28T10:38:10;10.60;99.90
10468;DHT22;5281;48.878;9.394;2024-02-28T10:40:39;10.60;99.90
10468;DHT22;5281;48.878;9.394;2024-02-28T10:43:08;10.50;99.90
10468;DHT22;5281;48.878;9.394;2024-02-28T10:45:35;10.10;99.90
10468;DHT22;5281;48.878;9.394;2024-02-28T10:48:04;10.00;99.90
10468;DHT22;5281;48.878;9.394;2024-02-28T10:50:31;10.10;99.90
10468;DHT22;5281;48.878;9.394;2024-02-28T10:53:00;10.20;99.90
10468;DHT22;5281;48.878;9.394;2024-02-28T10:55:32;10.30;99.90
10468;DHT22;5281;48.878;9.394;2024-02-28T10:58:03;10.40;99.90
10468;DHT22;5281;48.878;9.394;2024-02-28T11:00:30;10.30;99.90
10468;DHT22;5281;48.878;9.394;2024-02-28T11:02:58;10.30;99.90
10468;DHT22;5281;48.878;9.394;2024-02-28T11:05:35;10.20;99.90
10468;DHT22;5281;48.878;9.394;2024-02-28T11:08:02;10.10;99.90
10468;DHT22;5281;48.878;9.394;2024-02-28T11:10:31;9.90;99.90
10468;DHT22;5281;48.878;9.394;2024-02-28T11:12:58;9.90;99.90
10468;DHT22;5281;48.878;9.394;2024-02-28T11:15:26;10.10;99.90
10468;DHT22;5281;48.878;9.394;2024-02-28T11:17:53;10.00;99.90
10468;DHT22;5281;48.878;9.394;2024-02-28T11:20:20;9.80;99.90
10468;DHT22;5281;48.878;9.394;2024-02-28T11:22:48;9.90;99.90
10468;DHT22;5281;48.878;9.394;2024-02-28T11:25:14;10.10;99.90
10468;DHT22;5281;48.878;9.394;2024-02-28T11:27:47;10.10;99.90
10468;DHT22;5281;48.878;9.394;2024-02-28T11:30:14;10.10;99.90
10468;DHT22;5281;48.878;9.394;2024-02-28T11:32:43;10.00;99.90
10468;DHT22;5281;48.878;9.394;2024-02-28T11:35:09;10.00;99.90
10468;DHT22;5281;48.878;9.394;2024-02-28T11:37:37;9.90;99.90
10468;DHT22;5281;48.878;9.394;2024-02-28T11:40:07;10.00;99.90
10468;DHT22;5281;48.878;9.394;2024-02-28T11:42:35;10.00;99.90
10468;DHT22;5281;48.878;9.394;2024-02-28T11:45:01;10.10;99.90
10468;DHT22;5281;48.878;9.394;2024-02-28T11:47:31;10.30;99.90
10468;DHT22;5281;48.878;9.394;2024-02-28T11:50:00;10.50;99.90
10468;DHT22;5281;48.878;9.394;2024-02-28T11:52:27;10.50;99.90
10468;DHT22;5281;48.878;9.394;2024-02-28T11:54:54;10.90;99.90
10468;DHT22;5281;48.878;9.394;2024-02-28T11:57:21;11.20;99.90
10468;DHT22;5281;48.878;9.394;2024-02-28T11:59:48;11.30;99.90
10468;DHT22;5281;48.878;9.394;2024-02-28T12:02:15;11.50;99.90
10468;DHT22;5281;48.878;9.394;2024-02-28T12:04:42;11.60;99.90
10468;DHT22;5281;48.878;9.394;2024-02-28T12:07:10;11.90;99.90
10468;DHT22;5281;48.878;9.394;2024-02-28T12:09:37;12.00;99.90
10468;DHT22;5281;48.878;9.394;2024-02-28T12:12:06;11.80;99.90
10468;DHT22;5281;48.878;9.394;2024-02-28T12:14:36;11.70;99.90
10468;DHT22;5281;48.878;9.394;2024-02-28T12:17:04;11.80;99.90
10468;DHT22;5281;48.878;9.394;2024-02-28T12:19:30;11.80;99.90
10468;DHT22;5281;48.878;9.394;2024-02-28T12:21:57;12.00;99.90
10468;DHT22;5281;48.878;9.394;2024-02-28T12:24:26;12.20;99.90
10468;DHT22;5281;48.878;9.394;2024-02-28T12:26:53;12.30;99.90
10468;DHT22;5281;48.878;9.394;2024-02-28T12:29:20;12.30;99.90
10468;DHT22;5281;48.878;9.394;2024-02-28T12:31:46;12.30;99.90
10468;DHT22;5281;48.878;9.394;2024-02-28T12:34:13;12.30;99.90
10468;DHT22;5281;48.878;9.394;2024-02-28T12:36:40;12.40;99.90
10468;DHT22;5281;48.878;9.394;2024-02-28T12:39:07;12.60;99.90
10468;DHT22;5281;48.878;9.394;2024-02-28T12:41:38;12.70;99.90
10468;DHT22;5281;48.878;9.394;2024-02-28T12:44:05;12.80;99.90
10468;DHT22;5281;48.878;9.394;2024-02-28T12:46:32;12.90;99.90
10468;DHT22;5281;48.878;9.394;2024-02-28T12:48:59;12.90;99.90
10468;DHT22;5281;48.878;9.394;2024-02-28T12:51:37;13.10;99.90
10468;DHT22;5281;48.878;9.394;2024-02-28T12:54:04;13.00;99.90
10468;DHT22;5281;48.878;9.394;2024-02-28T12:56:31;13.10;99.90
10468;DHT22;5281;48.878;9.394;2024-02-28T12:58:59;13.10;99.90
10468;DHT22;5281;48.878;9.394;2024-02-28T13:01:26;13.00;99.90
10468;DHT22;5281;48.878;9.394;2024-02-28T13:03:53;13.00;99.90
10468;DHT22;5281;48.878;9.394;2024-02-28T13:06:20;13.00;99.90
10468;DHT22;5281;48.878;9.394;2024-02-28T13:08:47;12.90;99.90
10468;DHT22;5281;48.878;9.394;2024-02-28T13:11:17;12.80;99.90
10468;DHT22;5281;48.878;9.394;2024-02-28T13:13:44;12.80;99.90
10468;DHT22;5281;48.878;9.394;2024-02-28T13:16:12;12.90;99.90
10468;DHT22;5281;48.878;9.394;2024-02-28T13:18:39;12.90;99.90
10468;DHT22;5281;48.878;9.394;2024-02-28T13:21:06;12.90;99.90
10468;DHT22;5281;48.878;9.394;2024-02-28T13:23:33;12.60;99.90
10468;DHT22;5281;48.878;9.394;2024-02-28T13:25:59;12.30;99.90
10468;DHT22;5281;48.878;9.394;2024-02-28T13:28:27;12.20;99.90
10468;DHT22;5281;48.878;9.394;2024-02-28T13:30:56;12.10;99.90
10468;DHT22;5281;48.878;9.394;2024-02-28T13:33:24;12.10;99.90
10468;DHT22;5281;48.878;9.394;2024-02-28T13:35:51;12.20;99.90
10468;DHT22;5281;48.878;9.394;2024-02-28T13:38:18;12.10;99.90
10468;DHT22;5281;48.878;9.394;2024-02-28T13:40:45;11.60;99.90
10468;DHT22;5281;48.878;9.394;2024-02-28T13:43:12;11.60;99.90
10468;DHT22;5281;48.878;9.394;2024-02-28T13:45:39;11.70;99.90
10468;DHT22;5281;48.878;9.394;2024-02-28T13:48:15;11.90;99.90
10468;DHT22;5281;48.878;9.394;2024-02-28T13:50:44;12.20;99.90
10468;DHT22;5281;48.878;9.394;2024-02-28T13:53:11;12.20;99.90
10468;DHT22;5281;48.878;9.394;2024-02-28T13:55:37;11.80;99.90
10468;DHT22;5281;48.878;9.394;2024-02-28T13:58:04;11.80;99.90
10468;DHT22;5281;48.878;9.394;2024-02-28T14:00:31;11.90;99.90
10468;DHT22;5281;48.878;9.394;2024-02-28T14:02:59;12.10;99.90
10468;DHT22;5281;48.878;9.394;2024-02-28T14:05:26;12.10;99.90
10468;DHT22;5281;48.878;9.394;2024-02-28T14:07:54;12.20;99.90
10468;DHT22;5281;48.878;9.394;2024-02-28T14:10:22;12.50;99.90
10468;DHT22;5281;48.878;9.394;2024-02-28T14:12:49;12.70;99.90
10468;DHT22;5281;48.878;9.394;2024-02-28T14:15:18;12.60;99.90
10468;DHT22;5281;48.878;9.394;2024-02-28T14:17:44;12.60;99.90
10468;DHT22;5281;48.878;9.394;2024-02-28T14:20:11;12.40;99.90
10468;DHT22;5281;48.878;9.394;2024-02-28T14:22:38;12.10;99.90
10468;DHT22;5281;48.878;9.394;2024-02-28T14:25:11;11.80;99.90
10468;DHT22;5281;48.878;9.394;2024-02-28T14:27:38;11.80;99.90
10468;DHT22;5281;48.878;9.394;2024-02-28T14:30:06;12.00;99.90
10468;DHT22;5281;48.878;9.394;2024-02-28T14:32:34;12.00;99.90
10468;DHT22;5281;48.878;9.394;2024-02-28T14:35:01;12.00;99.90
10468;DHT22;5281;48.878;9.394;2024-02-28T14:37:28;11.80;99.90
10468;DHT22;5281;48.878;9.394;2024-02-28T14:39:54;11.60;99.90
10468;DHT22;5281;48.878;9.394;2024-02-28T14:42:23;11.30;99.90
10468;DHT22;5281;48.878;9.394;2024-02-28T14:44:50;11.50;99.90
10468;DHT22;5281;48.878;9.394;2024-02-28T14:47:18;11.60;99.90
10468;DHT22;5281;48.878;9.394;2024-02-28T14:49:45;11.60;99.90
10468;DHT22;5281;48.878;9.394;2024-02-28T14:52:12;11.80;99.90
10468;DHT22;5281;48.878;9.394;2024-02-28T14:54:39;11.90;99.90
10468;DHT22;5281;48.878;9.394;2024-02-28T14:57:06;12.20;99.90
10468;DHT22;5281;48.878;9.394;2024-02-28T14:59:35;12.30;99.90
10468;DHT22;5281;48.878;9.394;2024-02-28T15:02:01;12.30;99.90
10468;DHT22;5281;48.878;9.394;2024-02-28T15:04:29;12.30;99.90
10468;DHT22;5281;48.878;9.394;2024-02-28T15:06:55;12.40;99.90
10468;DHT22;5281;48.878;9.394;2024-02-28T15:09:22;12.40;99.90
10468;DHT22;5281;48.878;9.394;2024-02-28T15:11:49;12.40;99.90
10468;DHT22;5281;48.878;9.394;2024-02-28T15:14:15;12.30;99.90
10468;DHT22;5281;48.878;9.394;2024-02-28T15:16:43;12.30;99.90
10468;DHT22;5281;48.878;9.394;2024-02-28T15:19:10;12.10;99.90
10468;DHT22;5281;48.878;9.394;2024-02-28T15:21:37;12.10;99.90
10468;DHT22;5281;48.878;9.394;2024-02-28T15:24:04;11.90;99.90
10468;DHT22;5281;48.878;9.394;2024-02-28T15:26:30;11.80;99.90
10468;DHT22;5281;48.878;9.394;2024-02-28T15:28:57;11.70;99.90
10468;DHT22;5281;48.878;9.394;2024-02-28T15:31:24;11.60;99.90
10468;DHT22;5281;48.878;9.394;2024-02-28T15:33:52;11.20;99.90
10468;DHT22;5281;48.878;9.394;2024-02-28T15:36:19;11.20;99.90
10468;DHT22;5281;48.878;9.394;2024-02-28T15:38:45;11.20;99.90
10468;DHT22;5281;48.878;9.394;2024-02-28T15:41:12;11.30;99.90
10468;DHT22;5281;48.878;9.394;2024-02-28T15:43:39;11.40;99.90
10468;DHT22;5281;48.878;9.394;2024-02-28T15:46:05;11.40;99.90
10468;DHT22;5281;48.878;9.394;2024-02-28T15:48:32;11.50;99.90
10468;DHT22;5281;48.878;9.394;2024-02-28T15:51:00;11.50;99.90